Time;durP1;ratioP1;P1;durP2;ratioP2;P2;SDS_P1;SDS_P2;PMS_P1;PMS_P2;Temp;Humidity;BMP_temperature;BMP_pressure;BME280_temperature;BME280_humidity;BME280_pressure;Samples;Min_cycle;Max_cycle;Signal;HPM_P1;HPM_P2
2023/12/25 00:02:25;;;;;;;18.50;2.45;;;10.70;99.90;;;;;;5159029;27;20188;-86
2023/12/25 00:04:51;;;;;;;14.20;1.75;;;10.70;99.90;;;;;;5141337;27;20086;-86
2023/12/25 00:07:17;;;;;;;15.32;2.33;;;10.70;99.90;;;;;;5159349;27;20083;-86
2023/12/25 00:09:43;;;;;;;15.38;2.30;;;11.20;99.90;;;;;;5158226;27;20086;-87
2023/12/25 00:12:09;;;;;;;15.43;2.25;;;10.70;99.90;;;;;;5158688;27;20125;-87
2023/12/25 00:14:34;;;;;;;19.95;1.90;;;10.70;99.90;;;;;;5159390;27;20217;-86
2023/12/25 00:17:00;;;;;;;16.00;1.70;;;11.60;99.90;;;;;;5141636;27;20121;-87
2023/12/25 00:19:26;;;;;;;17.08;2.03;;;10.70;99.90;;;;;;5158039;27;20034;-86
2023/12/25 00:21:52;;;;;;;15.65;2.45;;;10.60;99.90;;;;;;5157892;27;20111;-86
2023/12/25 00:24:18;;;;;;;12.23;2.00;;;10.60;99.90;;;;;;5177191;27;20498;-87
2023/12/25 00:26:43;;;;;;;12.80;1.50;;;10.60;99.90;;;;;;5158881;27;20101;-87
2023/12/25 00:29:09;;;;;;;12.80;2.13;;;10.60;99.90;;;;;;5141622;27;20056;-86
2023/12/25 00:31:35;;;;;;;22.05;3.20;;;10.70;99.90;;;;;;5158328;27;20479;-86
2023/12/25 00:34:00;;;;;;;8.38;1.40;;;10.60;99.90;;;;;;5176793;27;20062;-86
2023/12/25 00:36:26;;;;;;;17.33;2.28;;;10.60;99.90;;;;;;5158519;27;20102;-87
2023/12/25 00:38:52;;;;;;;15.18;2.20;;;10.70;99.90;;;;;;5158416;27;20402;-84
2023/12/25 00:41:17;;;;;;;17.02;2.35;;;10.60;99.90;;;;;;5157810;27;20034;-86
2023/12/25 00:43:43;;;;;;;17.90;2.55;;;10.60;99.90;;;;;;5141373;27;20045;-86
2023/12/25 00:46:09;;;;;;;14.93;1.77;;;11.50;99.90;;;;;;5158557;27;20046;-87
2023/12/25 00:48:34;;;;;;;20.77;2.08;;;10.70;99.90;;;;;;5176458;27;20034;-86
2023/12/25 00:51:00;;;;;;;13.70;1.75;;;10.70;99.90;;;;;;5158014;27;20030;-85
2023/12/25 00:53:26;;;;;;;15.13;2.05;;;10.70;99.90;;;;;;5157931;27;20091;-86
2023/12/25 00:55:52;;;;;;;13.65;2.30;;;10.70;99.90;;;;;;5158552;27;20038;-87
2023/12/25 00:58:21;;;;;;;12.68;1.88;;;10.50;99.90;;;;;;5176652;27;20054;-86
2023/12/25 01:00:47;;;;;;;12.25;1.60;;;10.70;99.90;;;;;;5140941;27;20117;-88
2023/12/25 01:03:12;;;;;;;13.82;1.27;;;10.70;99.90;;;;;;5157562;27;20133;-87
2023/12/25 01:05:38;;;;;;;13.43;1.40;;;10.70;99.90;;;;;;5157627;27;20042;-87
2023/12/25 01:08:04;;;;;;;10.27;1.30;;;10.60;99.90;;;;;;5158104;27;20054;-89
2023/12/25 01:10:30;;;;;;;11.40;1.55;;;10.70;99.90;;;;;;5158287;27;20122;-88
2023/12/25 01:12:56;;;;;;;15.13;1.70;;;10.70;99.90;;;;;;5157684;27;20069;-88
2023/12/25 01:15:21;;;;;;;8.82;0.82;;;10.70;99.90;;;;;;5157682;27;20470;-89
2023/12/25 01:17:47;;;;;;;14.43;1.50;;;11.10;99.90;;;;;;5151282;27;20047;-87
2023/12/25 01:20:13;;;;;;;8.45;1.48;;;11.50;99.90;;;;;;5170659;27;20403;-88
2023/12/25 01:22:39;;;;;;;9.38;1.20;;;10.70;99.90;;;;;;5173585;27;20046;-88
2023/12/25 01:25:05;;;;;;;9.55;1.17;;;10.70;99.90;;;;;;5134162;27;20039;-86
2023/12/25 01:27:30;;;;;;;11.60;1.20;;;10.60;99.90;;;;;;5099101;27;20433;-88
2023/12/25 01:29:56;;;;;;;11.10;1.25;;;10.70;99.90;;;;;;5116537;27;20116;-88
2023/12/25 01:32:21;;;;;;;7.78;1.45;;;10.70;99.90;;;;;;5116278;27;20051;-89
2023/12/25 01:34:47;;;;;;;13.32;1.10;;;10.60;99.90;;;;;;5134062;27;20031;-88
2023/12/25 01:37:13;;;;;;;7.40;1.10;;;10.60;99.90;;;;;;5134210;27;20031;-88
2023/12/25 01:39:39;;;;;;;12.95;1.13;;;10.50;99.90;;;;;;5116160;27;20429;-89
2023/12/25 01:42:04;;;;;;;13.57;1.63;;;10.50;99.90;;;;;;5134661;27;20043;-87
2023/12/25 01:44:30;;;;;;;9.52;1.70;;;10.50;99.90;;;;;;5115966;27;20402;-89
2023/12/25 01:46:56;;;;;;;12.75;1.42;;;10.50;99.90;;;;;;5116032;27;20096;-89
2023/12/25 01:49:22;;;;;;;15.55;1.20;;;10.60;99.90;;;;;;5134179;27;20077;-88
2023/12/25 01:51:49;;;;;;;12.48;1.55;;;10.80;99.90;;;;;;5115977;27;20050;-88
2023/12/25 01:54:15;;;;;;;10.23;1.65;;;10.50;99.90;;;;;;5133231;27;20035;-88
2023/12/25 01:56:41;;;;;;;7.15;1.20;;;10.50;99.90;;;;;;5116019;27;20459;-88
2023/12/25 01:59:07;;;;;;;12.73;1.45;;;10.50;99.90;;;;;;5098918;27;20039;-88
2023/12/25 02:01:33;;;;;;;12.02;1.35;;;11.00;99.90;;;;;;5115956;27;20070;-88
2023/12/25 02:03:58;;;;;;;14.55;1.67;;;10.50;99.90;;;;;;5115332;27;20051;-88
2023/12/25 02:06:25;;;;;;;12.68;1.25;;;10.40;99.90;;;;;;5115923;27;20126;-88
2023/12/25 02:08:51;;;;;;;9.20;1.20;;;10.50;99.90;;;;;;5115167;27;20039;-88
2023/12/25 02:11:17;;;;;;;10.70;1.25;;;10.40;99.90;;;;;;5115657;27;20223;-87
2023/12/25 02:13:42;;;;;;;12.13;1.50;;;10.40;99.90;;;;;;5098219;27;20100;-87
2023/12/25 02:16:09;;;;;;;8.82;1.17;;;10.30;99.90;;;;;;5115361;28;20043;-88
2023/12/25 02:18:35;;;;;;;16.58;2.38;;;10.40;99.90;;;;;;5115492;27;20136;-88
2023/12/25 02:21:01;;;;;;;11.05;1.40;;;10.30;99.90;;;;;;5114914;28;20032;-88
2023/12/25 02:23:29;;;;;;;14.35;1.38;;;10.30;99.90;;;;;;5106118;27;20062;-88
2023/12/25 02:25:57;;;;;;;9.75;1.30;;;10.20;99.90;;;;;;5118437;27;20131;-88
2023/12/25 02:28:23;;;;;;;10.88;1.45;;;10.20;99.90;;;;;;5115846;28;20039;-88
2023/12/25 02:30:49;;;;;;;10.65;1.85;;;10.20;99.90;;;;;;5121104;28;20036;-87
2023/12/25 02:33:15;;;;;;;12.90;1.65;;;10.20;99.90;;;;;;5123450;27;20051;-87
2023/12/25 02:35:40;;;;;;;14.02;1.70;;;11.10;99.90;;;;;;5141486;27;20478;-89
2023/12/25 02:38:06;;;;;;;13.40;2.00;;;10.20;99.90;;;;;;5140238;27;20035;-87
2023/12/25 02:40:32;;;;;;;13.38;1.33;;;10.20;99.90;;;;;;5122978;27;20054;-87
2023/12/25 02:42:57;;;;;;;14.23;1.77;;;10.10;99.90;;;;;;5158693;27;20514;-89
2023/12/25 02:45:23;;;;;;;13.43;1.55;;;10.20;99.90;;;;;;5158418;27;20038;-89
2023/12/25 02:47:49;;;;;;;12.30;2.08;;;9.80;99.90;;;;;;5157388;27;20394;-88
2023/12/25 02:50:14;;;;;;;16.83;1.60;;;10.60;99.90;;;;;;5158907;27;20065;-89
2023/12/25 02:52:40;;;;;;;8.77;1.30;;;10.10;99.90;;;;;;5158514;27;20046;-87
2023/12/25 02:55:06;;;;;;;14.13;2.00;;;10.10;99.90;;;;;;5157133;27;20039;-88
2023/12/25 02:57:32;;;;;;;12.07;1.45;;;10.10;99.90;;;;;;5157359;27;20078;-88
2023/12/25 02:59:58;;;;;;;15.35;1.50;;;10.20;99.90;;;;;;5141089;27;20120;-89
2023/12/25 03:02:23;;;;;;;13.50;1.67;;;10.00;99.90;;;;;;5159177;27;20479;-88
2023/12/25 03:04:49;;;;;;;15.18;1.55;;;10.40;99.90;;;;;;5159048;27;20035;-88
2023/12/25 03:07:15;;;;;;;16.63;1.83;;;10.30;99.90;;;;;;5140074;27;20050;-87
2023/12/25 03:09:40;;;;;;;7.93;1.40;;;10.00;99.90;;;;;;5139321;27;20417;-89
2023/12/25 03:12:07;;;;;;;18.65;1.98;;;9.90;99.90;;;;;;5158068;27;20544;-87
2023/12/25 03:14:32;;;;;;;15.52;2.35;;;10.00;99.90;;;;;;5122474;27;20035;-89
2023/12/25 03:16:58;;;;;;;17.25;2.20;;;10.00;99.90;;;;;;5157820;27;20039;-88
2023/12/25 03:19:24;;;;;;;15.30;1.92;;;10.00;99.90;;;;;;5158252;27;20071;-88
2023/12/25 03:21:49;;;;;;;18.05;2.28;;;10.30;99.90;;;;;;5157841;27;20550;-89
2023/12/25 03:24:15;;;;;;;12.02;1.65;;;10.00;99.90;;;;;;5157540;27;20046;-87
2023/12/25 03:26:42;;;;;;;12.10;1.55;;;9.90;99.90;;;;;;5139185;27;20124;-87
2023/12/25 03:29:08;;;;;;;17.75;2.08;;;10.30;99.90;;;;;;5122221;27;20361;-88
2023/12/25 03:31:34;;;;;;;15.25;2.53;;;10.00;99.90;;;;;;5139537;27;20559;-88
2023/12/25 03:34:00;;;;;;;12.65;1.45;;;10.20;99.90;;;;;;5157651;27;20050;-89
2023/12/25 03:36:26;;;;;;;15.38;2.25;;;10.00;99.90;;;;;;5121441;27;20047;-87
2023/12/25 03:38:51;;;;;;;15.48;2.25;;;9.90;99.90;;;;;;5138630;27;20081;-87
2023/12/25 03:41:17;;;;;;;12.45;1.60;;;10.20;99.90;;;;;;5157105;27;20119;-88
2023/12/25 03:43:43;;;;;;;12.68;1.40;;;10.50;99.90;;;;;;5157407;27;20053;-89
2023/12/25 03:46:09;;;;;;;13.52;2.30;;;10.20;99.90;;;;;;5138612;27;20035;-88
2023/12/25 03:48:34;;;;;;;17.27;1.88;;;10.80;99.90;;;;;;5138888;27;20039;-88
2023/12/25 03:51:00;;;;;;;10.70;1.83;;;10.20;99.90;;;;;;5156824;27;20080;-88
2023/12/25 03:53:27;;;;;;;9.68;1.30;;;9.90;99.90;;;;;;5157011;27;20118;-90
2023/12/25 03:55:52;;;;;;;6.78;1.75;;;10.00;99.90;;;;;;5138176;27;20046;-87
2023/12/25 03:58:18;;;;;;;12.00;1.42;;;9.90;99.90;;;;;;5155840;27;20042;-88
2023/12/25 04:00:44;;;;;;;13.20;1.35;;;9.90;99.90;;;;;;5139001;27;20094;-89
2023/12/25 04:03:11;;;;;;;15.32;1.48;;;9.90;99.90;;;;;;5157100;27;20035;-87
2023/12/25 04:05:37;;;;;;;16.98;1.92;;;9.80;99.90;;;;;;5157273;27;20043;-88
2023/12/25 04:08:03;;;;;;;15.52;1.73;;;10.40;99.90;;;;;;5157107;27;20038;-89
2023/12/25 04:10:29;;;;;;;12.93;1.65;;;9.90;99.90;;;;;;5138179;27;20039;-88
2023/12/25 04:12:54;;;;;;;11.07;1.50;;;10.20;99.90;;;;;;5156766;27;20066;-88
2023/12/25 04:15:20;;;;;;;13.43;1.67;;;9.80;99.90;;;;;;5156939;27;20375;-88
2023/12/25 04:17:46;;;;;;;10.52;1.25;;;10.00;99.90;;;;;;5156708;27;20065;-88
2023/12/25 04:20:13;;;;;;;11.23;1.83;;;10.00;99.90;;;;;;5156468;27;20099;-88
2023/12/25 04:22:39;;;;;;;12.82;1.85;;;9.80;99.90;;;;;;5138153;27;20050;-87
2023/12/25 04:25:05;;;;;;;13.85;1.75;;;9.80;99.90;;;;;;5155913;27;20089;-88
2023/12/25 04:27:30;;;;;;;10.93;1.40;;;9.90;99.90;;;;;;5121042;27;20069;-89
2023/12/25 04:29:56;;;;;;;13.70;1.88;;;9.80;99.90;;;;;;5137542;27;20035;-88
2023/12/25 04:32:22;;;;;;;12.32;1.73;;;10.10;99.90;;;;;;5120666;27;20046;-88
2023/12/25 04:34:47;;;;;;;9.23;1.13;;;9.90;99.90;;;;;;5120839;27;20055;-88
2023/12/25 04:37:13;;;;;;;17.23;1.30;;;9.80;99.90;;;;;;5137707;27;20081;-87
2023/12/25 04:39:41;;;;;;;10.85;1.75;;;9.90;99.90;;;;;;5120716;27;20071;-88
2023/12/25 04:42:07;;;;;;;12.38;1.45;;;9.90;99.90;;;;;;5120436;27;20079;-89
2023/12/25 04:44:33;;;;;;;12.13;1.15;;;9.90;99.90;;;;;;5137471;27;20451;-87
2023/12/25 04:46:59;;;;;;;15.35;2.80;;;9.80;99.90;;;;;;5137717;27;20035;-89
2023/12/25 04:49:24;;;;;;;17.95;2.35;;;10.10;99.90;;;;;;5137669;27;20050;-87
2023/12/25 04:51:50;;;;;;;11.73;2.03;;;10.50;99.90;;;;;;5156166;27;20061;-88
2023/12/25 04:54:16;;;;;;;11.77;1.42;;;9.70;99.90;;;;;;5119988;27;20075;-87
2023/12/25 04:56:41;;;;;;;12.65;1.58;;;10.60;99.90;;;;;;5119822;27;20042;-87
2023/12/25 04:59:09;;;;;;;15.02;1.80;;;10.00;99.90;;;;;;5136355;27;20050;-87
2023/12/25 05:01:35;;;;;;;11.85;2.63;;;9.70;99.90;;;;;;5155458;27;20039;-87
2023/12/25 05:04:00;;;;;;;14.32;1.58;;;9.70;99.90;;;;;;5148875;27;20122;-87
2023/12/25 05:06:26;;;;;;;19.15;2.45;;;10.00;99.90;;;;;;5137088;27;20150;-87
2023/12/25 05:08:52;;;;;;;12.48;1.40;;;9.70;99.90;;;;;;5155547;27;20049;-87
2023/12/25 05:11:17;;;;;;;12.68;1.50;;;10.00;99.90;;;;;;5154085;27;20383;-88
2023/12/25 05:13:43;;;;;;;16.65;1.40;;;9.70;99.90;;;;;;5152846;27;20077;-87
2023/12/25 05:16:09;;;;;;;10.55;1.67;;;9.70;99.90;;;;;;5155371;27;20043;-88
2023/12/25 05:18:35;;;;;;;21.83;2.30;;;9.70;99.90;;;;;;5136208;27;20483;-86
2023/12/25 05:21:00;;;;;;;13.63;1.83;;;10.30;99.90;;;;;;5154613;27;20034;-88
2023/12/25 05:23:26;;;;;;;14.32;1.60;;;9.70;99.90;;;;;;5136778;27;20052;-87
2023/12/25 05:25:52;;;;;;;17.13;1.63;;;9.80;99.90;;;;;;5136512;27;20460;-88
2023/12/25 05:28:17;;;;;;;19.02;2.00;;;9.70;99.90;;;;;;5136759;27;20061;-89
2023/12/25 05:30:43;;;;;;;11.73;1.50;;;9.70;99.90;;;;;;5136490;27;20055;-88
2023/12/25 05:33:09;;;;;;;17.75;1.75;;;9.70;99.90;;;;;;5154775;27;20038;-88
2023/12/25 05:35:35;;;;;;;12.27;1.92;;;9.70;99.90;;;;;;5136786;27;20058;-87
2023/12/25 05:38:00;;;;;;;9.75;1.63;;;9.60;99.90;;;;;;5136252;27;20039;-87
2023/12/25 05:40:26;;;;;;;12.95;1.67;;;10.40;99.90;;;;;;5154736;27;20042;-87
2023/12/25 05:42:52;;;;;;;15.50;1.67;;;9.60;99.90;;;;;;5119311;27;20088;-88
2023/12/25 05:45:19;;;;;;;13.23;1.75;;;10.10;99.90;;;;;;5154767;27;20126;-88
2023/12/25 05:47:45;;;;;;;14.27;1.90;;;9.60;99.90;;;;;;5136271;27;20047;-88
2023/12/25 05:50:10;;;;;;;14.05;2.42;;;10.50;99.90;;;;;;5118460;27;20102;-87
2023/12/25 05:52:36;;;;;;;17.27;1.85;;;10.60;99.90;;;;;;5135805;27;20050;-89
2023/12/25 05:55:02;;;;;;;19.65;2.20;;;9.50;99.90;;;;;;5153509;27;20039;-87
2023/12/25 05:57:30;;;;;;;14.60;2.47;;;9.50;99.90;;;;;;5137345;27;20062;-87
2023/12/25 05:59:56;;;;;;;12.43;1.55;;;9.50;99.90;;;;;;5140260;27;20117;-88
2023/12/25 06:02:22;;;;;;;15.23;1.65;;;9.60;99.90;;;;;;5124865;27;20081;-87
2023/12/25 06:04:48;;;;;;;21.38;1.92;;;10.10;99.90;;;;;;5119451;27;20418;-87
2023/12/25 06:07:14;;;;;;;13.38;2.05;;;9.50;99.90;;;;;;5154232;27;20039;-87
2023/12/25 06:09:39;;;;;;;13.63;1.80;;;10.10;99.90;;;;;;5153911;27;20126;-88
2023/12/25 06:12:06;;;;;;;7.68;1.77;;;9.40;99.90;;;;;;5135917;27;20081;-88
2023/12/25 06:14:32;;;;;;;15.93;2.40;;;9.40;99.90;;;;;;5135984;27;20080;-87
2023/12/25 06:16:57;;;;;;;12.15;1.63;;;9.40;99.90;;;;;;5135933;27;20046;-89
2023/12/25 06:19:24;;;;;;;21.15;2.80;;;9.40;99.90;;;;;;5136195;27;20038;-88
2023/12/25 06:21:49;;;;;;;17.90;2.75;;;9.30;99.90;;;;;;5154416;27;20039;-87
2023/12/25 06:24:15;;;;;;;16.33;1.70;;;10.20;99.90;;;;;;5135430;27;20047;-86
2023/12/25 06:26:41;;;;;;;11.25;1.92;;;9.30;99.90;;;;;;5118466;27;20130;-87
2023/12/25 06:29:07;;;;;;;14.68;1.90;;;9.20;99.90;;;;;;5137165;27;20129;-87
2023/12/25 06:31:32;;;;;;;12.73;2.00;;;10.10;99.90;;;;;;5156328;27;20042;-87
2023/12/25 06:33:58;;;;;;;15.80;2.17;;;9.20;99.90;;;;;;5156515;27;20126;-88
2023/12/25 06:36:24;;;;;;;20.08;2.38;;;9.80;99.90;;;;;;5175183;27;20133;-88
2023/12/25 06:38:49;;;;;;;16.73;1.67;;;9.20;99.90;;;;;;5156365;27;20039;-86
2023/12/25 06:41:15;;;;;;;21.88;2.47;;;9.10;99.90;;;;;;5156079;27;20049;-86
2023/12/25 06:43:41;;;;;;;18.33;2.60;;;9.10;99.90;;;;;;5174549;27;20099;-86
2023/12/25 06:46:07;;;;;;;8.82;1.40;;;9.40;99.90;;;;;;5155461;27;20047;-87
2023/12/25 06:48:32;;;;;;;18.15;2.20;;;9.10;99.90;;;;;;5156366;27;20360;-87
2023/12/25 06:50:58;;;;;;;15.63;1.92;;;9.10;99.90;;;;;;5174978;27;20052;-88
2023/12/25 06:53:24;;;;;;;14.48;2.10;;;9.50;99.90;;;;;;5156467;27;20050;-87
2023/12/25 06:55:50;;;;;;;21.30;3.13;;;9.10;99.90;;;;;;5175151;27;20414;-88
2023/12/25 06:58:15;;;;;;;16.50;1.85;;;9.20;99.90;;;;;;5156229;27;20551;-87
2023/12/25 07:00:41;;;;;;;21.75;2.42;;;9.50;99.90;;;;;;5174570;27;20091;-88
2023/12/25 07:03:07;;;;;;;18.08;2.70;;;9.10;99.90;;;;;;5156476;27;20042;-86
2023/12/25 07:05:33;;;;;;;14.07;1.80;;;9.20;99.90;;;;;;5156184;27;20401;-88
2023/12/25 07:07:59;;;;;;;21.45;2.70;;;9.00;99.90;;;;;;5138938;27;20038;-89
2023/12/25 07:10:24;;;;;;;18.73;2.03;;;9.40;99.90;;;;;;5174755;27;20031;-87
2023/12/25 07:12:50;;;;;;;20.30;2.30;;;9.00;99.90;;;;;;5155688;27;20134;-86
2023/12/25 07:15:16;;;;;;;17.42;2.42;;;9.00;99.90;;;;;;5156265;27;20038;-87
2023/12/25 07:17:41;;;;;;;16.20;2.17;;;9.20;99.90;;;;;;5174056;27;20046;-87
2023/12/25 07:20:08;;;;;;;17.20;2.00;;;9.70;99.90;;;;;;5158460;27;20478;-87
2023/12/25 07:22:33;;;;;;;16.13;1.95;;;9.00;99.90;;;;;;5160316;27;20043;-87
2023/12/25 07:25:05;;;;;;;11.43;1.33;;;8.90;99.90;;;;;;5142093;27;20121;-89
2023/12/25 07:27:31;;;;;;;10.55;1.52;;;9.00;99.90;;;;;;5178564;27;20050;-88
2023/12/25 07:29:57;;;;;;;16.13;2.38;;;9.00;99.90;;;;;;5160000;27;20466;-89
2023/12/25 07:32:22;;;;;;;19.05;2.92;;;9.10;99.90;;;;;;5142221;27;20094;-88
2023/12/25 07:34:48;;;;;;;20.40;1.60;;;9.00;99.90;;;;;;5160148;27;20050;-88
2023/12/25 07:37:14;;;;;;;10.73;1.92;;;9.00;99.90;;;;;;5160257;27;20124;-87
2023/12/25 07:39:42;;;;;;;13.45;2.30;;;9.20;99.90;;;;;;5158902;27;20045;-88
2023/12/25 07:42:08;;;;;;;11.40;1.50;;;9.60;99.90;;;;;;5159448;27;20089;-88
2023/12/25 07:44:40;;;;;;;14.15;1.33;;;9.20;99.90;;;;;;5177981;27;20070;-87
2023/12/25 07:47:06;;;;;;;16.65;1.50;;;9.10;99.90;;;;;;5177531;27;20046;-89
2023/12/25 07:49:32;;;;;;;21.48;2.15;;;9.10;99.90;;;;;;5159622;27;20038;-87
2023/12/25 07:51:58;;;;;;;8.32;1.13;;;9.10;99.90;;;;;;5142057;27;20046;-88
2023/12/25 07:54:24;;;;;;;12.32;1.88;;;9.10;99.90;;;;;;5159154;27;20466;-86
2023/12/25 07:56:49;;;;;;;8.07;1.30;;;9.30;99.90;;;;;;5159017;27;20038;-87
2023/12/25 07:59:16;;;;;;;8.68;1.17;;;9.00;99.90;;;;;;5159706;27;20045;-87
2023/12/25 08:01:42;;;;;;;11.73;1.10;;;9.10;99.90;;;;;;5159064;27;20045;-87
2023/12/25 08:04:08;;;;;;;3.85;0.60;;;9.00;99.90;;;;;;5178230;27;20042;-88
2023/12/25 08:06:33;;;;;;;7.15;0.80;;;9.00;99.90;;;;;;5177606;27;20490;-88
2023/12/25 08:08:59;;;;;;;4.38;0.80;;;9.20;99.90;;;;;;5177973;27;20034;-87
2023/12/25 08:11:25;;;;;;;8.57;0.95;;;9.50;99.90;;;;;;5158911;27;20068;-88
2023/12/25 08:13:50;;;;;;;7.28;0.73;;;8.80;99.90;;;;;;5177656;27;20422;-88
2023/12/25 08:16:16;;;;;;;6.13;0.70;;;8.70;99.90;;;;;;5160138;27;20114;-88
2023/12/25 08:18:42;;;;;;;9.52;0.82;;;8.60;99.90;;;;;;5160383;27;20107;-87
2023/12/25 08:21:08;;;;;;;10.07;1.17;;;8.60;99.90;;;;;;5143053;27;20071;-87
2023/12/25 08:23:33;;;;;;;11.73;1.20;;;9.30;99.90;;;;;;5158532;27;20525;-87
2023/12/25 08:26:02;;;;;;;11.73;1.30;;;8.60;99.90;;;;;;5177346;27;20054;-88
2023/12/25 08:28:28;;;;;;;13.27;1.27;;;8.50;99.90;;;;;;5177540;27;20054;-87
2023/12/25 08:30:54;;;;;;;7.38;0.90;;;8.50;99.90;;;;;;5176598;27;20090;-87
2023/12/25 08:33:20;;;;;;;10.68;1.30;;;8.40;99.90;;;;;;5141972;27;20179;-87
2023/12/25 08:35:45;;;;;;;10.32;1.50;;;8.50;99.90;;;;;;5177384;27;20437;-88
2023/12/25 08:38:11;;;;;;;12.18;1.23;;;9.00;99.90;;;;;;5158709;27;20034;-88
2023/12/25 08:44:18;;;;;;;12.32;2.10;;;8.50;99.90;;;;;;5176895;27;20048;-88
2023/12/25 08:46:46;;;;;;;14.18;1.48;;;8.70;99.90;;;;;;5177467;27;20121;-88
2023/12/25 08:49:11;;;;;;;11.75;2.55;;;9.30;99.90;;;;;;5158031;27;20050;-89
2023/12/25 08:51:38;;;;;;;15.07;1.92;;;8.50;99.90;;;;;;5158485;27;20598;-86
2023/12/25 08:54:04;;;;;;;9.25;1.75;;;9.00;99.90;;;;;;5140051;27;20106;-88
2023/12/25 08:56:29;;;;;;;13.75;1.27;;;8.50;99.90;;;;;;5140659;27;20052;-88
2023/12/25 08:58:57;;;;;;;12.80;1.65;;;8.40;99.90;;;;;;5140633;27;20045;-88
2023/12/25 09:01:24;;;;;;;12.30;1.40;;;8.40;99.90;;;;;;5140988;27;20065;-87
2023/12/25 09:03:50;;;;;;;12.00;1.17;;;8.50;99.90;;;;;;5158043;27;20045;-87
2023/12/25 09:06:15;;;;;;;8.43;1.42;;;9.20;99.90;;;;;;5158055;27;20042;-86
2023/12/25 09:08:41;;;;;;;11.68;1.52;;;8.50;99.90;;;;;;5156777;27;20129;-87
2023/12/25 09:11:09;;;;;;;11.65;1.73;;;9.20;99.90;;;;;;5155450;27;20034;-87
2023/12/25 09:13:35;;;;;;;11.88;1.85;;;8.70;99.90;;;;;;5137235;27;20107;-86
2023/12/25 09:16:01;;;;;;;10.68;1.85;;;8.30;99.90;;;;;;5136563;27;20038;-87
2023/12/25 09:18:27;;;;;;;14.57;1.70;;;8.30;99.90;;;;;;5119455;27;20058;-86
2023/12/25 09:20:53;;;;;;;16.73;1.95;;;8.30;99.90;;;;;;5140525;27;20030;-87
2023/12/25 09:23:19;;;;;;;9.23;1.33;;;9.00;99.90;;;;;;5140251;27;20091;-87
2023/12/25 09:25:44;;;;;;;11.57;1.30;;;8.30;99.90;;;;;;5157388;27;20508;-86
2023/12/25 09:28:14;;;;;;;15.77;1.23;;;8.70;99.90;;;;;;5178047;27;20106;-89
2023/12/25 09:30:40;;;;;;;10.13;1.17;;;8.60;99.90;;;;;;5161496;27;20138;-86
2023/12/25 09:33:06;;;;;;;16.83;1.98;;;9.20;99.90;;;;;;5140220;27;20522;-88
2023/12/25 09:35:32;;;;;;;9.95;1.30;;;8.20;99.90;;;;;;5157112;27;20034;-86
2023/12/25 09:37:57;;;;;;;7.35;1.30;;;8.70;99.90;;;;;;5157274;27;20098;-88
2023/12/25 09:40:23;;;;;;;8.73;1.13;;;8.90;99.90;;;;;;5175716;27;20034;-88
2023/12/25 09:42:50;;;;;;;9.63;1.10;;;8.50;99.90;;;;;;5175062;27;20117;-87
2023/12/25 09:45:17;;;;;;;10.68;1.02;;;9.40;99.90;;;;;;5140489;27;20045;-86
2023/12/25 09:47:45;;;;;;;8.13;1.60;;;8.50;99.90;;;;;;5140292;27;20439;-87
2023/12/25 09:50:11;;;;;;;10.07;0.82;;;9.20;99.90;;;;;;5157786;27;20381;-88
2023/12/25 09:52:37;;;;;;;10.80;1.10;;;9.10;99.90;;;;;;5175607;27;20098;-86
2023/12/25 09:55:03;;;;;;;11.98;1.33;;;8.50;99.90;;;;;;5157239;27;20120;-87
2023/12/25 09:57:33;;;;;;;8.65;1.00;;;8.50;99.90;;;;;;5156590;27;20183;-86
2023/12/25 10:00:02;;;;;;;13.35;1.42;;;8.50;99.90;;;;;;5157044;27;20073;-88
2023/12/25 10:02:28;;;;;;;5.18;1.10;;;8.50;99.90;;;;;;5138961;27;20046;-87
2023/12/25 10:04:54;;;;;;;8.63;1.20;;;8.70;99.90;;;;;;5155926;27;20064;-89
2023/12/25 10:07:20;;;;;;;13.65;1.92;;;8.70;99.90;;;;;;5139630;27;20038;-88
2023/12/25 10:09:53;;;;;;;12.13;1.30;;;8.60;99.90;;;;;;5156722;27;20121;-87
2023/12/25 10:12:19;;;;;;;17.48;1.67;;;8.60;99.90;;;;;;5139451;27;20117;-86
2023/12/25 10:14:46;;;;;;;13.77;1.85;;;9.20;99.90;;;;;;5175547;27;20034;-86
2023/12/25 10:17:12;;;;;;;11.55;1.58;;;8.60;99.90;;;;;;5138554;27;20063;-86
2023/12/25 10:19:54;;;;;;;12.57;1.17;;;8.70;99.90;;;;;;5139123;27;20077;-86
2023/12/25 10:22:38;;;;;;;13.10;1.95;;;8.70;99.90;;;;;;5174797;27;20034;-87
2023/12/25 10:25:09;;;;;;;11.77;1.58;;;8.80;99.90;;;;;;5153924;27;20538;-86
2023/12/25 10:27:37;;;;;;;17.77;1.55;;;8.80;99.90;;;;;;5155828;27;20042;-87
2023/12/25 10:30:04;;;;;;;13.20;1.48;;;8.80;99.90;;;;;;5175305;27;20126;-87
2023/12/25 10:32:31;;;;;;;8.70;1.70;;;8.80;99.90;;;;;;5174941;27;20042;-86
2023/12/25 10:35:13;;;;;;;11.57;1.52;;;8.70;99.90;;;;;;5174869;27;20042;-87
2023/12/25 10:37:40;;;;;;;8.57;1.13;;;8.80;99.90;;;;;;5136037;27;20111;-86
2023/12/25 10:44:18;;;;;;;7.45;1.00;;;8.80;99.90;;;;;;5174688;27;20565;-87
2023/12/25 10:46:47;;;;;;;15.98;1.85;;;8.90;99.90;;;;;;5174795;27;20133;-87
2023/12/25 10:49:13;;;;;;;12.27;1.13;;;8.90;99.90;;;;;;5156126;27;20546;-87
2023/12/25 10:51:49;;;;;;;13.68;1.45;;;8.90;99.90;;;;;;5175243;27;20038;-88
2023/12/25 10:54:16;;;;;;;10.70;1.35;;;8.90;99.90;;;;;;5175933;27;20034;-88
2023/12/25 10:56:44;;;;;;;10.07;1.20;;;9.10;99.90;;;;;;5160275;27;20046;-87
2023/12/25 10:59:24;;;;;;;14.27;1.58;;;9.00;99.90;;;;;;5160770;27;20034;-86
2023/12/25 11:01:51;;;;;;;11.52;2.05;;;9.10;99.90;;;;;;5160430;27;20045;-86
2023/12/25 11:04:17;;;;;;;11.07;1.40;;;9.10;99.90;;;;;;5160943;27;20386;-87
2023/12/25 11:06:49;;;;;;;15.02;1.60;;;9.10;99.90;;;;;;5143283;27;20064;-87
2023/12/25 11:09:19;;;;;;;10.20;1.55;;;9.30;99.90;;;;;;5160316;27;20045;-86
2023/12/25 11:11:46;;;;;;;17.58;2.13;;;9.80;99.90;;;;;;5159852;27;20042;-86
2023/12/25 11:14:12;;;;;;;13.13;1.88;;;9.40;99.90;;;;;;5159984;27;20046;-87
2023/12/25 11:16:38;;;;;;;12.23;1.20;;;9.20;99.90;;;;;;5177865;27;20125;-86
2023/12/25 11:19:05;;;;;;;11.00;1.65;;;9.30;99.90;;;;;;5158787;27;20434;-86
2023/12/25 11:21:33;;;;;;;12.48;1.50;;;9.20;99.90;;;;;;5160172;27;20035;-86
2023/12/25 11:24:02;;;;;;;10.38;1.55;;;9.20;99.90;;;;;;5158810;27;20132;-87
2023/12/25 11:26:29;;;;;;;13.13;1.73;;;9.30;99.90;;;;;;5142177;27;20418;-86
2023/12/25 11:28:58;;;;;;;19.25;2.42;;;9.20;99.90;;;;;;5142301;27;20046;-87
2023/12/25 11:31:26;;;;;;;20.13;1.80;;;9.20;99.90;;;;;;5159746;27;20038;-86
2023/12/25 11:33:52;;;;;;;10.88;1.58;;;9.20;99.90;;;;;;5159435;27;20049;-87
2023/12/25 11:36:18;;;;;;;20.23;1.50;;;9.20;99.90;;;;;;5159700;27;20050;-87
2023/12/25 11:38:45;;;;;;;15.85;1.52;;;9.20;99.90;;;;;;5159055;27;20055;-86
2023/12/25 11:41:18;;;;;;;11.30;1.30;;;9.30;99.90;;;;;;5142373;27;20038;-87
2023/12/25 11:43:46;;;;;;;15.00;1.45;;;9.30;99.90;;;;;;5178542;27;20053;-88
2023/12/25 11:46:19;;;;;;;12.48;1.38;;;9.30;99.90;;;;;;5178139;27;20038;-86
2023/12/25 11:48:57;;;;;;;9.32;1.35;;;9.40;99.90;;;;;;5158146;27;20042;-88
2023/12/25 11:51:29;;;;;;;9.32;1.20;;;9.30;99.90;;;;;;5159788;27;20393;-86
2023/12/25 11:54:01;;;;;;;9.70;1.35;;;9.40;99.90;;;;;;5141956;27;20128;-85
2023/12/25 11:56:28;;;;;;;10.95;1.20;;;10.00;99.90;;;;;;5141448;27;20042;-84
2023/12/25 11:58:54;;;;;;;15.25;1.65;;;9.70;99.90;;;;;;5157566;27;20042;-85
2023/12/25 12:01:22;;;;;;;12.43;1.73;;;9.50;99.90;;;;;;5158888;27;20136;-85
2023/12/25 12:03:49;;;;;;;14.50;1.70;;;9.50;99.90;;;;;;5141147;27;20101;-86
2023/12/25 12:06:16;;;;;;;14.05;1.80;;;9.50;99.90;;;;;;5176126;27;20042;-86
2023/12/25 12:08:43;;;;;;;16.67;1.85;;;9.60;99.90;;;;;;5158836;27;20482;-85
2023/12/25 12:11:14;;;;;;;18.92;1.95;;;9.80;99.90;;;;;;5158442;27;20038;-85
2023/12/25 12:13:40;;;;;;;11.20;1.25;;;9.60;99.90;;;;;;5158608;27;20046;-85
2023/12/25 12:16:07;;;;;;;13.50;1.45;;;9.60;99.90;;;;;;5157909;27;20038;-86
2023/12/25 12:18:32;;;;;;;10.85;1.73;;;9.80;99.90;;;;;;5156415;27;20115;-86
2023/12/25 12:20:58;;;;;;;17.17;2.10;;;9.60;99.90;;;;;;5158529;27;20042;-85
2023/12/25 12:23:27;;;;;;;15.32;1.33;;;9.70;99.90;;;;;;5158042;27;20398;-85
2023/12/25 12:25:53;;;;;;;8.02;1.38;;;10.50;99.90;;;;;;5139504;27;20057;-86
2023/12/25 12:28:19;;;;;;;8.50;1.40;;;10.20;99.90;;;;;;5158442;27;20406;-85
2023/12/25 12:30:45;;;;;;;16.55;1.23;;;9.60;99.90;;;;;;5177275;27;20114;-86
2023/12/25 12:33:16;;;;;;;9.32;1.60;;;9.90;99.90;;;;;;5158285;27;20088;-86
2023/12/25 12:35:42;;;;;;;8.30;1.33;;;9.70;99.90;;;;;;5177110;27;20046;-86
2023/12/25 12:38:12;;;;;;;11.18;1.50;;;9.70;99.90;;;;;;5157764;27;20094;-85
2023/12/25 12:40:38;;;;;;;7.70;1.15;;;9.70;99.90;;;;;;5158258;27;20042;-85
2023/12/25 12:43:07;;;;;;;8.70;1.42;;;9.70;99.90;;;;;;5176913;27;20053;-85
2023/12/25 12:45:33;;;;;;;19.38;1.73;;;9.70;99.90;;;;;;5158162;27;20137;-85
2023/12/25 12:47:59;;;;;;;12.52;1.42;;;9.70;99.90;;;;;;5158112;27;20113;-86
2023/12/25 12:50:25;;;;;;;12.05;1.55;;;9.80;99.90;;;;;;5158527;27;20035;-87